Hatia, Bangladesh

9:14 AM BDT on August 28, 2014 (GMT +0600)
M.A. Hannan International | Change Station
CLOSE
Current Station
Airport
Location: Chittagong,
Elevation: 13 ft
Nearby Weather Stations

Elev 13 ft 22.27 °N, 91.82 °E | Updated 24 minutes ago

Mostly Cloudy
Mostly Cloudy
88 °F
Feels Like 102 °F
N
0
Wind Variable Wind from North

Today
High -- | Low -- °F
--% Chance of Precip.
Yesterday
High -- | Low -- °F
Precip. -- in
5:36 AM 6:16 PM
Waxing Crescent, 6% visible
Pressure 29.68 in
Visibility 3.7 miles
Clouds Scattered Clouds 1800 ft
Mostly Cloudy 12000 ft
Heat Index 102 °F
Dew Point 79 °F
Humidity 75%
Rainfall 0.00 in
Snow Depth Not available.
UV 5 out of 12
Pollen Not available.
Air Quality Not available.
Flu Activity Not available.
METAR VGEG 280250Z 00000KT 6000 SCT018 BKN120 31/26 Q1005 NOSIG

More Conditions Fewer Conditions

Pressure 29.68 in
Visibility 3.7 miles
Clouds Scattered Clouds 1800 ft
Mostly Cloudy 12000 ft
Heat Index 102 °F
Dew Point 79 °F
Humidity 75%
Rainfall 0.00 in
Snow Depth Not available.
UV 5 out of 12
Pollen Not available.
Air Quality Not available.
Flu Activity Not available.
METAR VGEG 280250Z 00000KT 6000 SCT018 BKN120 31/26 Q1005 NOSIG

More Conditions Fewer Conditions

10-Day Weather Forecast

Almanac

Astronomy

Aug. 28, 2014 Rise Set
Actual Time 5:36 AM BDT 6:16 PM BDT
Civil Twilight 5:14 AM BDT 6:39 PM BDT
Nautical Twilight 4:47 AM BDT 7:06 PM BDT
Astronomical Twilight 4:20 AM BDT 7:33 PM BDT
Moon 7:39 AM BDT 7:49 PM BDT
Length of Visible Light 13h 25m
Length of Day
12h 39m
Tomorrow will be 1m 13s shorter.
Waxing Crescent, 6% of the Moon is Illuminated
Aug 27
Waxing Crescent
Sep 2
First Quarter
Sep 8
Full
Sep 15
Last Quarter
Sep 24
New

Yesterday's Extremes

Country Highs Country Lows

Community

WunderPhotos

Upload Photos

1,747,892 photos uploaded!

Nearby

Snow Depth

Not available.

Earthquake Activity

City Distance Mag. Time & Date
No recent earthquake activity has been reported nearby.
Minimum magnitude displayed is 2.5.

Coastal Water Temperatures

Place Temperature
No Stations Reporting

Nearby Weather Stations